Weather at Bordeaux-Mérignac Airport

Public forecast

Using degrees Celsius for public forecast. Weather courtesy of forecast.io.

Current aviation weather report (METAR) for Bordeaux-Mérignac Airport

2022/12/01 22:00 (retrieved 37 minutes ago)

LFBD 012200Z AUTO VRB02KT 8000 OVC045 05/04 Q1021 BECMG 3000 BR

Aviation forecast (TAF) for Bordeaux-Mérignac Airport

2022/12/01 18:21 (retrieved 4 hours ago)

TAF LFBD 011700Z 0118/0224 03010KT 9999 BKN040 TX07/0118Z TNM00/0205Z BECMG 0118/0120 CAVOK BECMG 0123/0201 3000 BR PROB40 0203/0209 0400 FG VV/// BECMG 0209/0211 9999 NSW BKN005 BECMG 0211/0213 BKN015 BECMG 0216/0218 VRB02KT BKN015 PROB30 TEMPO 0220/0224 2000 DZ OVC003